sensor_id;sensor_type;location;lat;lon;timestamp;temperature;humidity
42683;DHT22;28293;50.930;3.464;2024-02-21T00:00:38;10.10;92.10
42683;DHT22;28293;50.930;3.464;2024-02-21T00:03:04;10.10;92.10
42683;DHT22;28293;50.930;3.464;2024-02-21T00:05:30;10.10;92.10
42683;DHT22;28293;50.930;3.464;2024-02-21T00:07:58;10.10;92.00
42683;DHT22;28293;50.930;3.464;2024-02-21T00:10:23;10.10;91.80
42683;DHT22;28293;50.930;3.464;2024-02-21T00:12:53;10.10;91.80
42683;DHT22;28293;50.930;3.464;2024-02-21T00:15:19;10.10;91.80
42683;DHT22;28293;50.930;3.464;2024-02-21T00:17:44;10.10;91.80
42683;DHT22;28293;50.930;3.464;2024-02-21T00:20:10;10.10;91.70
42683;DHT22;28293;50.930;3.464;2024-02-21T00:22:37;10.10;91.40
42683;DHT22;28293;50.930;3.464;2024-02-21T00:25:03;10.10;91.50
42683;DHT22;28293;50.930;3.464;2024-02-21T00:27:29;10.10;91.50
42683;DHT22;28293;50.930;3.464;2024-02-21T00:29:54;10.00;91.60
42683;DHT22;28293;50.930;3.464;2024-02-21T00:32:20;10.10;91.80
42683;DHT22;28293;50.930;3.464;2024-02-21T00:34:46;10.00;91.90
42683;DHT22;28293;50.930;3.464;2024-02-21T00:37:12;9.90;92.00
42683;DHT22;28293;50.930;3.464;2024-02-21T00:39:37;9.80;92.40
42683;DHT22;28293;50.930;3.464;2024-02-21T00:42:03;9.80;92.70
42683;DHT22;28293;50.930;3.464;2024-02-21T00:44:29;9.70;93.00
42683;DHT22;28293;50.930;3.464;2024-02-21T00:46:54;9.70;93.40
42683;DHT22;28293;50.930;3.464;2024-02-21T00:49:21;9.60;93.60
42683;DHT22;28293;50.930;3.464;2024-02-21T00:51:47;9.60;93.90
42683;DHT22;28293;50.930;3.464;2024-02-21T00:54:12;9.50;94.20
42683;DHT22;28293;50.930;3.464;2024-02-21T00:56:38;9.50;94.50
42683;DHT22;28293;50.930;3.464;2024-02-21T00:59:03;9.40;94.70
42683;DHT22;28293;50.930;3.464;2024-02-21T01:01:29;9.50;94.70
42683;DHT22;28293;50.930;3.464;2024-02-21T01:03:55;9.40;94.80
42683;DHT22;28293;50.930;3.464;2024-02-21T01:06:21;9.40;94.80
42683;DHT22;28293;50.930;3.464;2024-02-21T01:08:49;9.40;94.90
42683;DHT22;28293;50.930;3.464;2024-02-21T01:11:15;9.40;95.00
42683;DHT22;28293;50.930;3.464;2024-02-21T01:13:41;9.40;95.10
42683;DHT22;28293;50.930;3.464;2024-02-21T01:16:07;9.30;95.10
42683;DHT22;28293;50.930;3.464;2024-02-21T01:18:33;9.30;95.10
42683;DHT22;28293;50.930;3.464;2024-02-21T01:20:59;9.30;95.10
42683;DHT22;28293;50.930;3.464;2024-02-21T01:23:25;9.20;95.10
42683;DHT22;28293;50.930;3.464;2024-02-21T01:25:51;9.30;95.20
42683;DHT22;28293;50.930;3.464;2024-02-21T01:28:17;9.20;95.30
42683;DHT22;28293;50.930;3.464;2024-02-21T01:30:43;9.20;95.30
42683;DHT22;28293;50.930;3.464;2024-02-21T01:33:08;9.20;95.20
42683;DHT22;28293;50.930;3.464;2024-02-21T01:35:35;9.30;95.20
42683;DHT22;28293;50.930;3.464;2024-02-21T01:38:01;9.20;95.20
42683;DHT22;28293;50.930;3.464;2024-02-21T01:40:26;9.20;95.10
42683;DHT22;28293;50.930;3.464;2024-02-21T01:42:55;9.20;95.20
42683;DHT22;28293;50.930;3.464;2024-02-21T01:45:21;9.10;95.10
42683;DHT22;28293;50.930;3.464;2024-02-21T01:47:48;9.10;95.10
42683;DHT22;28293;50.930;3.464;2024-02-21T01:50:15;9.10;95.10
42683;DHT22;28293;50.930;3.464;2024-02-21T01:52:43;9.10;95.10
42683;DHT22;28293;50.930;3.464;2024-02-21T01:55:12;9.10;95.10
42683;DHT22;28293;50.930;3.464;2024-02-21T01:57:40;9.10;95.10
42683;DHT22;28293;50.930;3.464;2024-02-21T02:00:06;9.10;95.00
42683;DHT22;28293;50.930;3.464;2024-02-21T02:02:32;9.00;95.00
42683;DHT22;28293;50.930;3.464;2024-02-21T02:04:59;9.00;95.10
42683;DHT22;28293;50.930;3.464;2024-02-21T02:07:26;9.00;95.10
42683;DHT22;28293;50.930;3.464;2024-02-21T02:09:51;9.00;95.10
42683;DHT22;28293;50.930;3.464;2024-02-21T02:12:17;9.00;95.10
42683;DHT22;28293;50.930;3.464;2024-02-21T02:14:43;8.90;95.00
42683;DHT22;28293;50.930;3.464;2024-02-21T02:17:08;8.90;95.10
42683;DHT22;28293;50.930;3.464;2024-02-21T02:19:35;8.90;95.10
42683;DHT22;28293;50.930;3.464;2024-02-21T02:22:13;8.90;95.10
42683;DHT22;28293;50.930;3.464;2024-02-21T02:24:40;9.00;95.20
42683;DHT22;28293;50.930;3.464;2024-02-21T02:27:05;9.00;95.10
42683;DHT22;28293;50.930;3.464;2024-02-21T02:29:32;9.00;95.10
42683;DHT22;28293;50.930;3.464;2024-02-21T02:31:58;9.10;95.10
42683;DHT22;28293;50.930;3.464;2024-02-21T02:34:23;9.10;95.10
42683;DHT22;28293;50.930;3.464;2024-02-21T02:36:49;9.10;95.00
42683;DHT22;28293;50.930;3.464;2024-02-21T02:39:15;9.10;94.90
42683;DHT22;28293;50.930;3.464;2024-02-21T02:41:40;9.10;94.90
42683;DHT22;28293;50.930;3.464;2024-02-21T02:44:06;9.10;94.90
42683;DHT22;28293;50.930;3.464;2024-02-21T02:46:32;9.20;94.90
42683;DHT22;28293;50.930;3.464;2024-02-21T02:48:57;9.20;94.80
42683;DHT22;28293;50.930;3.464;2024-02-21T02:51:23;9.20;94.70
42683;DHT22;28293;50.930;3.464;2024-02-21T02:53:48;9.20;94.60
42683;DHT22;28293;50.930;3.464;2024-02-21T02:56:15;9.20;94.70
42683;DHT22;28293;50.930;3.464;2024-02-21T02:58:42;9.20;94.60
42683;DHT22;28293;50.930;3.464;2024-02-21T03:01:08;9.20;94.60
42683;DHT22;28293;50.930;3.464;2024-02-21T03:03:33;9.20;94.60
42683;DHT22;28293;50.930;3.464;2024-02-21T03:05:59;9.20;94.50
42683;DHT22;28293;50.930;3.464;2024-02-21T03:08:24;9.20;94.50
42683;DHT22;28293;50.930;3.464;2024-02-21T03:10:50;9.30;94.50
42683;DHT22;28293;50.930;3.464;2024-02-21T03:13:15;9.30;94.30
42683;DHT22;28293;50.930;3.464;2024-02-21T03:15:41;9.30;94.20
42683;DHT22;28293;50.930;3.464;2024-02-21T03:18:07;9.20;94.20
42683;DHT22;28293;50.930;3.464;2024-02-21T03:20:33;9.20;94.20
42683;DHT22;28293;50.930;3.464;2024-02-21T03:22:58;9.20;94.30
42683;DHT22;28293;50.930;3.464;2024-02-21T03:25:24;9.20;94.30
42683;DHT22;28293;50.930;3.464;2024-02-21T03:27:49;9.20;94.20
42683;DHT22;28293;50.930;3.464;2024-02-21T03:30:15;9.20;94.30
42683;DHT22;28293;50.930;3.464;2024-02-21T03:32:41;9.10;94.20
42683;DHT22;28293;50.930;3.464;2024-02-21T03:35:06;9.10;94.40
42683;DHT22;28293;50.930;3.464;2024-02-21T03:37:32;9.10;94.40
42683;DHT22;28293;50.930;3.464;2024-02-21T03:39:58;9.10;94.40
42683;DHT22;28293;50.930;3.464;2024-02-21T03:42:23;9.10;94.40
42683;DHT22;28293;50.930;3.464;2024-02-21T03:44:49;9.10;94.50
42683;DHT22;28293;50.930;3.464;2024-02-21T03:47:15;9.10;94.50
42683;DHT22;28293;50.930;3.464;2024-02-21T03:49:40;9.10;94.50
42683;DHT22;28293;50.930;3.464;2024-02-21T03:52:06;9.10;94.50
42683;DHT22;28293;50.930;3.464;2024-02-21T03:54:32;9.10;94.40
42683;DHT22;28293;50.930;3.464;2024-02-21T03:56:57;9.10;94.50
42683;DHT22;28293;50.930;3.464;2024-02-21T03:59:23;9.20;94.40
42683;DHT22;28293;50.930;3.464;2024-02-21T04:01:55;9.10;94.30
42683;DHT22;28293;50.930;3.464;2024-02-21T04:04:21;9.10;94.30
42683;DHT22;28293;50.930;3.464;2024-02-21T04:06:50;9.10;94.20
42683;DHT22;28293;50.930;3.464;2024-02-21T04:09:16;9.20;94.30
42683;DHT22;28293;50.930;3.464;2024-02-21T04:11:42;9.20;94.30
42683;DHT22;28293;50.930;3.464;2024-02-21T04:14:07;9.20;94.20
42683;DHT22;28293;50.930;3.464;2024-02-21T04:16:34;9.20;94.20
42683;DHT22;28293;50.930;3.464;2024-02-21T04:19:00;9.20;94.20
42683;DHT22;28293;50.930;3.464;2024-02-21T04:21:27;9.20;94.20
42683;DHT22;28293;50.930;3.464;2024-02-21T04:23:53;9.20;94.20
42683;DHT22;28293;50.930;3.464;2024-02-21T04:26:18;9.20;94.20
42683;DHT22;28293;50.930;3.464;2024-02-21T04:28:45;9.20;94.30
42683;DHT22;28293;50.930;3.464;2024-02-21T04:31:11;9.20;94.30
42683;DHT22;28293;50.930;3.464;2024-02-21T04:33:36;9.20;94.20
42683;DHT22;28293;50.930;3.464;2024-02-21T04:36:02;9.10;94.30
42683;DHT22;28293;50.930;3.464;2024-02-21T04:38:27;9.20;94.30
42683;DHT22;28293;50.930;3.464;2024-02-21T04:40:55;9.20;94.30
42683;DHT22;28293;50.930;3.464;2024-02-21T04:43:24;9.10;94.30
42683;DHT22;28293;50.930;3.464;2024-02-21T04:45:50;9.10;94.30
42683;DHT22;28293;50.930;3.464;2024-02-21T04:48:16;9.10;94.40
42683;DHT22;28293;50.930;3.464;2024-02-21T04:50:41;9.10;94.40
42683;DHT22;28293;50.930;3.464;2024-02-21T04:53:07;9.10;94.50
42683;DHT22;28293;50.930;3.464;2024-02-21T04:55:33;9.10;94.60
42683;DHT22;28293;50.930;3.464;2024-02-21T04:57:58;9.10;94.70
42683;DHT22;28293;50.930;3.464;2024-02-21T05:00:24;9.10;94.70
42683;DHT22;28293;50.930;3.464;2024-02-21T05:02:50;9.10;94.70
42683;DHT22;28293;50.930;3.464;2024-02-21T05:05:15;9.10;94.70
42683;DHT22;28293;50.930;3.464;2024-02-21T05:07:42;9.10;94.70
42683;DHT22;28293;50.930;3.464;2024-02-21T05:10:08;9.10;94.70
42683;DHT22;28293;50.930;3.464;2024-02-21T05:12:35;9.10;94.80
42683;DHT22;28293;50.930;3.464;2024-02-21T05:15:01;9.10;94.80
42683;DHT22;28293;50.930;3.464;2024-02-21T05:17:26;9.10;94.80
42683;DHT22;28293;50.930;3.464;2024-02-21T05:19:52;9.10;94.90
42683;DHT22;28293;50.930;3.464;2024-02-21T05:22:17;9.10;94.90
42683;DHT22;28293;50.930;3.464;2024-02-21T05:24:43;9.10;94.90
42683;DHT22;28293;50.930;3.464;2024-02-21T05:27:09;9.10;94.80
42683;DHT22;28293;50.930;3.464;2024-02-21T05:29:34;9.10;94.80
42683;DHT22;28293;50.930;3.464;2024-02-21T05:32:00;9.10;94.90
42683;DHT22;28293;50.930;3.464;2024-02-21T05:34:26;9.10;94.80
42683;DHT22;28293;50.930;3.464;2024-02-21T05:36:52;9.10;94.80
42683;DHT22;28293;50.930;3.464;2024-02-21T05:39:18;9.10;94.80
42683;DHT22;28293;50.930;3.464;2024-02-21T05:41:44;9.10;94.80
42683;DHT22;28293;50.930;3.464;2024-02-21T05:44:10;9.10;94.80
42683;DHT22;28293;50.930;3.464;2024-02-21T05:46:36;9.10;94.90
42683;DHT22;28293;50.930;3.464;2024-02-21T05:49:01;9.10;94.90
42683;DHT22;28293;50.930;3.464;2024-02-21T05:51:27;9.10;94.90
42683;DHT22;28293;50.930;3.464;2024-02-21T05:53:53;9.10;94.90
42683;DHT22;28293;50.930;3.464;2024-02-21T05:56:18;9.10;95.00
42683;DHT22;28293;50.930;3.464;2024-02-21T05:58:45;9.10;95.00
42683;DHT22;28293;50.930;3.464;2024-02-21T06:01:11;9.10;94.90
42683;DHT22;28293;50.930;3.464;2024-02-21T06:03:37;9.00;95.00
42683;DHT22;28293;50.930;3.464;2024-02-21T06:06:03;9.00;95.00
42683;DHT22;28293;50.930;3.464;2024-02-21T06:08:30;9.10;95.00
42683;DHT22;28293;50.930;3.464;2024-02-21T06:10:56;9.00;94.90
42683;DHT22;28293;50.930;3.464;2024-02-21T06:13:23;9.00;94.90
42683;DHT22;28293;50.930;3.464;2024-02-21T06:15:49;9.00;94.90
42683;DHT22;28293;50.930;3.464;2024-02-21T06:18:19;9.10;94.90
42683;DHT22;28293;50.930;3.464;2024-02-21T06:20:45;9.00;95.00
42683;DHT22;28293;50.930;3.464;2024-02-21T06:23:15;9.00;95.00
42683;DHT22;28293;50.930;3.464;2024-02-21T06:25:42;9.00;94.90
42683;DHT22;28293;50.930;3.464;2024-02-21T06:28:08;9.00;95.00
42683;DHT22;28293;50.930;3.464;2024-02-21T06:30:33;9.00;95.00
42683;DHT22;28293;50.930;3.464;2024-02-21T06:32:59;9.10;95.00
42683;DHT22;28293;50.930;3.464;2024-02-21T06:35:25;9.00;95.00
42683;DHT22;28293;50.930;3.464;2024-02-21T06:37:54;9.00;95.00
42683;DHT22;28293;50.930;3.464;2024-02-21T06:40:22;9.10;95.10
42683;DHT22;28293;50.930;3.464;2024-02-21T06:42:48;9.10;94.90
42683;DHT22;28293;50.930;3.464;2024-02-21T06:45:14;9.00;95.00
42683;DHT22;28293;50.930;3.464;2024-02-21T06:47:40;9.00;95.10
42683;DHT22;28293;50.930;3.464;2024-02-21T06:50:05;9.00;95.00
42683;DHT22;28293;50.930;3.464;2024-02-21T06:52:31;9.00;95.10
42683;DHT22;28293;50.930;3.464;2024-02-21T06:54:57;9.00;95.00
42683;DHT22;28293;50.930;3.464;2024-02-21T06:57:23;9.00;95.00
42683;DHT22;28293;50.930;3.464;2024-02-21T06:59:49;9.10;95.00
42683;DHT22;28293;50.930;3.464;2024-02-21T07:02:14;9.10;95.00
42683;DHT22;28293;50.930;3.464;2024-02-21T07:04:40;9.00;95.00
42683;DHT22;28293;50.930;3.464;2024-02-21T07:07:05;9.00;95.00
42683;DHT22;28293;50.930;3.464;2024-02-21T07:09:31;9.00;95.00
42683;DHT22;28293;50.930;3.464;2024-02-21T07:11:58;9.00;95.00
42683;DHT22;28293;50.930;3.464;2024-02-21T07:14:24;9.00;95.00
42683;DHT22;28293;50.930;3.464;2024-02-21T07:16:50;9.00;95.00
42683;DHT22;28293;50.930;3.464;2024-02-21T07:19:16;9.10;95.00
42683;DHT22;28293;50.930;3.464;2024-02-21T07:21:42;9.10;95.00
42683;DHT22;28293;50.930;3.464;2024-02-21T07:24:08;9.10;95.10
42683;DHT22;28293;50.930;3.464;2024-02-21T07:26:34;9.10;94.90
42683;DHT22;28293;50.930;3.464;2024-02-21T07:28:59;9.10;94.80
42683;DHT22;28293;50.930;3.464;2024-02-21T07:31:25;9.10;94.80
42683;DHT22;28293;50.930;3.464;2024-02-21T07:33:51;9.10;94.80
42683;DHT22;28293;50.930;3.464;2024-02-21T07:36:28;9.10;94.80
42683;DHT22;28293;50.930;3.464;2024-02-21T07:38:53;9.10;94.80
42683;DHT22;28293;50.930;3.464;2024-02-21T07:41:19;9.10;94.80
42683;DHT22;28293;50.930;3.464;2024-02-21T07:43:45;9.10;94.70
42683;DHT22;28293;50.930;3.464;2024-02-21T07:46:10;9.20;94.60
42683;DHT22;28293;50.930;3.464;2024-02-21T07:48:36;9.10;94.70
42683;DHT22;28293;50.930;3.464;2024-02-21T07:51:01;9.20;94.80
42683;DHT22;28293;50.930;3.464;2024-02-21T07:53:27;9.20;94.70
42683;DHT22;28293;50.930;3.464;2024-02-21T07:55:53;9.10;94.60
42683;DHT22;28293;50.930;3.464;2024-02-21T07:58:18;9.20;94.60
42683;DHT22;28293;50.930;3.464;2024-02-21T08:00:44;9.20;94.50
42683;DHT22;28293;50.930;3.464;2024-02-21T08:03:09;9.30;94.50
42683;DHT22;28293;50.930;3.464;2024-02-21T08:05:35;9.20;94.50
42683;DHT22;28293;50.930;3.464;2024-02-21T08:08:01;9.20;94.50
42683;DHT22;28293;50.930;3.464;2024-02-21T08:10:28;9.20;94.40
42683;DHT22;28293;50.930;3.464;2024-02-21T08:12:53;9.30;94.30
42683;DHT22;28293;50.930;3.464;2024-02-21T08:15:19;9.20;94.10
42683;DHT22;28293;50.930;3.464;2024-02-21T08:17:46;9.20;94.10
42683;DHT22;28293;50.930;3.464;2024-02-21T08:20:11;9.20;94.10
42683;DHT22;28293;50.930;3.464;2024-02-21T08:22:37;9.10;94.00
42683;DHT22;28293;50.930;3.464;2024-02-21T08:25:04;9.20;93.90
42683;DHT22;28293;50.930;3.464;2024-02-21T08:27:31;9.20;93.90
42683;DHT22;28293;50.930;3.464;2024-02-21T08:29:56;9.20;93.80
42683;DHT22;28293;50.930;3.464;2024-02-21T08:32:22;9.20;93.60
42683;DHT22;28293;50.930;3.464;2024-02-21T08:34:47;9.20;93.60
42683;DHT22;28293;50.930;3.464;2024-02-21T08:37:13;9.20;93.30
42683;DHT22;28293;50.930;3.464;2024-02-21T08:39:39;9.30;93.30
42683;DHT22;28293;50.930;3.464;2024-02-21T08:42:05;9.30;93.10
42683;DHT22;28293;50.930;3.464;2024-02-21T08:44:30;9.30;93.00
42683;DHT22;28293;50.930;3.464;2024-02-21T08:46:56;9.30;93.00
42683;DHT22;28293;50.930;3.464;2024-02-21T08:49:22;9.30;92.90
42683;DHT22;28293;50.930;3.464;2024-02-21T08:51:47;9.30;93.00
42683;DHT22;28293;50.930;3.464;2024-02-21T08:54:13;9.30;92.90
42683;DHT22;28293;50.930;3.464;2024-02-21T08:56:39;9.30;92.80
42683;DHT22;28293;50.930;3.464;2024-02-21T08:59:04;9.40;92.70
42683;DHT22;28293;50.930;3.464;2024-02-21T09:01:30;9.40;92.80
42683;DHT22;28293;50.930;3.464;2024-02-21T09:03:55;9.50;92.70
42683;DHT22;28293;50.930;3.464;2024-02-21T09:06:22;9.50;92.40
42683;DHT22;28293;50.930;3.464;2024-02-21T09:08:48;9.60;92.40
42683;DHT22;28293;50.930;3.464;2024-02-21T09:11:14;9.60;92.20
42683;DHT22;28293;50.930;3.464;2024-02-21T09:13:40;9.60;92.10
42683;DHT22;28293;50.930;3.464;2024-02-21T09:16:06;9.60;91.90
42683;DHT22;28293;50.930;3.464;2024-02-21T09:18:31;9.70;91.90
42683;DHT22;28293;50.930;3.464;2024-02-21T09:20:57;9.70;91.80
42683;DHT22;28293;50.930;3.464;2024-02-21T09:23:26;9.70;91.90
42683;DHT22;28293;50.930;3.464;2024-02-21T09:25:51;9.70;91.80
42683;DHT22;28293;50.930;3.464;2024-02-21T09:28:17;9.80;91.60
42683;DHT22;28293;50.930;3.464;2024-02-21T09:30:43;9.80;91.50
42683;DHT22;28293;50.930;3.464;2024-02-21T09:33:08;9.80;91.40
42683;DHT22;28293;50.930;3.464;2024-02-21T09:35:34;9.90;91.40
42683;DHT22;28293;50.930;3.464;2024-02-21T09:38:00;9.90;91.20
42683;DHT22;28293;50.930;3.464;2024-02-21T09:40:27;9.90;91.20
42683;DHT22;28293;50.930;3.464;2024-02-21T09:43:04;10.00;90.90
42683;DHT22;28293;50.930;3.464;2024-02-21T09:45:32;10.10;90.90
42683;DHT22;28293;50.930;3.464;2024-02-21T09:50:24;10.10;90.60
42683;DHT22;28293;50.930;3.464;2024-02-21T09:52:52;10.10;90.60
42683;DHT22;28293;50.930;3.464;2024-02-21T09:55:20;10.10;90.40
42683;DHT22;28293;50.930;3.464;2024-02-21T09:57:46;10.10;90.60
42683;DHT22;28293;50.930;3.464;2024-02-21T10:00:13;10.10;90.40
42683;DHT22;28293;50.930;3.464;2024-02-21T10:02:49;10.10;90.40
42683;DHT22;28293;50.930;3.464;2024-02-21T10:05:16;10.10;90.20
42683;DHT22;28293;50.930;3.464;2024-02-21T10:07:43;10.10;90.50
42683;DHT22;28293;50.930;3.464;2024-02-21T10:10:09;10.10;90.30
42683;DHT22;28293;50.930;3.464;2024-02-21T10:12:35;10.20;90.40
42683;DHT22;28293;50.930;3.464;2024-02-21T10:15:05;10.20;90.20
42683;DHT22;28293;50.930;3.464;2024-02-21T10:17:34;10.20;90.20
42683;DHT22;28293;50.930;3.464;2024-02-21T10:20:11;10.20;90.10
42683;DHT22;28293;50.930;3.464;2024-02-21T10:22:38;10.20;90.10
42683;DHT22;28293;50.930;3.464;2024-02-21T10:25:12;10.20;90.10
42683;DHT22;28293;50.930;3.464;2024-02-21T10:27:41;10.20;90.10
42683;DHT22;28293;50.930;3.464;2024-02-21T10:30:14;10.30;90.20
42683;DHT22;28293;50.930;3.464;2024-02-21T10:32:53;10.30;90.00
42683;DHT22;28293;50.930;3.464;2024-02-21T10:35:29;10.30;90.00
42683;DHT22;28293;50.930;3.464;2024-02-21T10:37:59;10.30;89.90
42683;DHT22;28293;50.930;3.464;2024-02-21T10:40:29;10.20;90.10
42683;DHT22;28293;50.930;3.464;2024-02-21T10:42:59;10.20;90.20
42683;DHT22;28293;50.930;3.464;2024-02-21T10:45:32;10.20;90.30
42683;DHT22;28293;50.930;3.464;2024-02-21T10:48:13;10.10;90.10
42683;DHT22;28293;50.930;3.464;2024-02-21T10:50:57;10.10;90.30
42683;DHT22;28293;50.930;3.464;2024-02-21T10:53:58;10.10;90.10
42683;DHT22;28293;50.930;3.464;2024-02-21T10:56:34;10.10;90.10
42683;DHT22;28293;50.930;3.464;2024-02-21T10:59:03;10.10;90.10
42683;DHT22;28293;50.930;3.464;2024-02-21T11:01:29;10.10;90.20
42683;DHT22;28293;50.930;3.464;2024-02-21T11:04:01;10.10;90.20
42683;DHT22;28293;50.930;3.464;2024-02-21T11:06:27;10.10;90.30
42683;DHT22;28293;50.930;3.464;2024-02-21T11:09:03;10.10;90.40
42683;DHT22;28293;50.930;3.464;2024-02-21T11:11:40;10.10;90.40
42683;DHT22;28293;50.930;3.464;2024-02-21T11:14:19;10.10;90.50
42683;DHT22;28293;50.930;3.464;2024-02-21T11:16:46;10.10;90.50
42683;DHT22;28293;50.930;3.464;2024-02-21T11:19:22;10.20;90.50
42683;DHT22;28293;50.930;3.464;2024-02-21T11:21:49;10.20;90.20
42683;DHT22;28293;50.930;3.464;2024-02-21T11:24:35;10.20;90.20
42683;DHT22;28293;50.930;3.464;2024-02-21T11:29:45;10.30;90.10
42683;DHT22;28293;50.930;3.464;2024-02-21T11:32:14;10.30;90.10
42683;DHT22;28293;50.930;3.464;2024-02-21T11:34:40;10.30;89.80
42683;DHT22;28293;50.930;3.464;2024-02-21T11:37:15;10.20;89.70
42683;DHT22;28293;50.930;3.464;2024-02-21T11:39:43;10.20;89.80
42683;DHT22;28293;50.930;3.464;2024-02-21T11:42:10;10.20;90.00
42683;DHT22;28293;50.930;3.464;2024-02-21T11:44:36;10.30;89.80
42683;DHT22;28293;50.930;3.464;2024-02-21T11:47:08;10.30;89.50
42683;DHT22;28293;50.930;3.464;2024-02-21T11:49:38;10.30;89.30
42683;DHT22;28293;50.930;3.464;2024-02-21T11:52:07;10.20;89.40
42683;DHT22;28293;50.930;3.464;2024-02-21T11:54:33;10.30;89.30
42683;DHT22;28293;50.930;3.464;2024-02-21T11:57:00;10.30;89.40
42683;DHT22;28293;50.930;3.464;2024-02-21T11:59:26;10.30;89.00
42683;DHT22;28293;50.930;3.464;2024-02-21T12:01:54;10.20;89.00
42683;DHT22;28293;50.930;3.464;2024-02-21T12:04:20;10.30;89.10
42683;DHT22;28293;50.930;3.464;2024-02-21T12:06:46;10.40;88.90
42683;DHT22;28293;50.930;3.464;2024-02-21T12:09:16;10.50;88.70
42683;DHT22;28293;50.930;3.464;2024-02-21T12:11:43;10.50;89.00
42683;DHT22;28293;50.930;3.464;2024-02-21T12:14:09;10.50;88.70
42683;DHT22;28293;50.930;3.464;2024-02-21T12:16:35;10.60;88.50
42683;DHT22;28293;50.930;3.464;2024-02-21T12:19:04;10.60;88.30
42683;DHT22;28293;50.930;3.464;2024-02-21T12:21:31;10.70;88.10
42683;DHT22;28293;50.930;3.464;2024-02-21T12:24:00;10.70;88.30
42683;DHT22;28293;50.930;3.464;2024-02-21T12:26:36;10.70;88.40
42683;DHT22;28293;50.930;3.464;2024-02-21T12:29:03;10.70;88.20
42683;DHT22;28293;50.930;3.464;2024-02-21T12:31:28;10.80;88.40
42683;DHT22;28293;50.930;3.464;2024-02-21T12:33:54;10.80;88.10
42683;DHT22;28293;50.930;3.464;2024-02-21T12:36:20;10.70;88.00
42683;DHT22;28293;50.930;3.464;2024-02-21T12:38:47;10.80;88.40
42683;DHT22;28293;50.930;3.464;2024-02-21T12:41:14;10.80;88.20
42683;DHT22;28293;50.930;3.464;2024-02-21T12:43:40;10.60;88.40
42683;DHT22;28293;50.930;3.464;2024-02-21T12:46:07;10.60;88.60
42683;DHT22;28293;50.930;3.464;2024-02-21T12:48:33;10.60;88.90
42683;DHT22;28293;50.930;3.464;2024-02-21T12:50:59;10.60;89.00
42683;DHT22;28293;50.930;3.464;2024-02-21T12:53:25;10.70;89.10
42683;DHT22;28293;50.930;3.464;2024-02-21T12:55:51;10.60;89.10
42683;DHT22;28293;50.930;3.464;2024-02-21T12:58:17;10.50;89.70
42683;DHT22;28293;50.930;3.464;2024-02-21T13:00:43;10.50;89.70
42683;DHT22;28293;50.930;3.464;2024-02-21T13:03:10;10.60;90.20
42683;DHT22;28293;50.930;3.464;2024-02-21T13:05:38;10.50;90.40
42683;DHT22;28293;50.930;3.464;2024-02-21T13:08:06;10.40;91.10
42683;DHT22;28293;50.930;3.464;2024-02-21T13:10:32;10.40;91.40
42683;DHT22;28293;50.930;3.464;2024-02-21T13:13:00;10.40;91.80
42683;DHT22;28293;50.930;3.464;2024-02-21T13:15:26;10.40;92.10
42683;DHT22;28293;50.930;3.464;2024-02-21T13:17:53;10.30;92.40
42683;DHT22;28293;50.930;3.464;2024-02-21T13:20:20;10.30;92.70
42683;DHT22;28293;50.930;3.464;2024-02-21T13:22:46;10.40;92.90
42683;DHT22;28293;50.930;3.464;2024-02-21T13:25:12;10.40;92.80
42683;DHT22;28293;50.930;3.464;2024-02-21T13:27:41;10.40;93.10
42683;DHT22;28293;50.930;3.464;2024-02-21T13:30:07;10.40;93.10
42683;DHT22;28293;50.930;3.464;2024-02-21T13:32:35;10.50;93.10
42683;DHT22;28293;50.930;3.464;2024-02-21T13:35:01;10.40;93.10
42683;DHT22;28293;50.930;3.464;2024-02-21T13:37:27;10.40;93.30
42683;DHT22;28293;50.930;3.464;2024-02-21T13:39:54;10.30;93.50
42683;DHT22;28293;50.930;3.464;2024-02-21T13:42:20;10.30;93.60
42683;DHT22;28293;50.930;3.464;2024-02-21T13:44:46;10.20;93.60
42683;DHT22;28293;50.930;3.464;2024-02-21T13:47:15;10.20;93.80
42683;DHT22;28293;50.930;3.464;2024-02-21T13:49:41;10.30;93.90
42683;DHT22;28293;50.930;3.464;2024-02-21T13:52:07;10.30;94.00
42683;DHT22;28293;50.930;3.464;2024-02-21T13:54:34;10.20;93.80
42683;DHT22;28293;50.930;3.464;2024-02-21T13:57:00;10.20;94.10
42683;DHT22;28293;50.930;3.464;2024-02-21T13:59:28;10.20;94.20
42683;DHT22;28293;50.930;3.464;2024-02-21T14:01:53;10.20;94.30
42683;DHT22;28293;50.930;3.464;2024-02-21T14:04:19;10.20;94.50
42683;DHT22;28293;50.930;3.464;2024-02-21T14:06:46;10.10;94.60
42683;DHT22;28293;50.930;3.464;2024-02-21T14:09:12;10.10;94.70
42683;DHT22;28293;50.930;3.464;2024-02-21T14:11:37;10.10;94.70
42683;DHT22;28293;50.930;3.464;2024-02-21T14:14:05;10.10;94.90
42683;DHT22;28293;50.930;3.464;2024-02-21T14:16:31;10.00;95.00
42683;DHT22;28293;50.930;3.464;2024-02-21T14:18:57;10.00;95.10
42683;DHT22;28293;50.930;3.464;2024-02-21T14:21:23;10.00;95.20
42683;DHT22;28293;50.930;3.464;2024-02-21T14:23:49;10.00;95.20
42683;DHT22;28293;50.930;3.464;2024-02-21T14:26:14;9.90;95.20
42683;DHT22;28293;50.930;3.464;2024-02-21T14:28:40;10.00;95.30
42683;DHT22;28293;50.930;3.464;2024-02-21T14:31:07;10.00;95.30
42683;DHT22;28293;50.930;3.464;2024-02-21T14:33:35;9.90;95.50
42683;DHT22;28293;50.930;3.464;2024-02-21T14:36:01;9.90;95.50
42683;DHT22;28293;50.930;3.464;2024-02-21T14:38:28;9.90;95.60
42683;DHT22;28293;50.930;3.464;2024-02-21T14:40:55;9.90;95.80
42683;DHT22;28293;50.930;3.464;2024-02-21T14:43:20;9.90;95.80
42683;DHT22;28293;50.930;3.464;2024-02-21T14:45:49;9.80;95.80
42683;DHT22;28293;50.930;3.464;2024-02-21T14:48:15;9.80;95.80
42683;DHT22;28293;50.930;3.464;2024-02-21T14:50:41;9.80;95.90
42683;DHT22;28293;50.930;3.464;2024-02-21T14:53:09;9.80;96.00
42683;DHT22;28293;50.930;3.464;2024-02-21T14:55:36;9.80;96.00
42683;DHT22;28293;50.930;3.464;2024-02-21T14:58:01;9.80;96.10
42683;DHT22;28293;50.930;3.464;2024-02-21T15:00:27;9.80;96.20
42683;DHT22;28293;50.930;3.464;2024-02-21T15:02:59;9.80;96.20
42683;DHT22;28293;50.930;3.464;2024-02-21T15:05:25;9.80;96.20
42683;DHT22;28293;50.930;3.464;2024-02-21T15:07:51;9.80;96.10
42683;DHT22;28293;50.930;3.464;2024-02-21T15:10:17;9.80;96.20
42683;DHT22;28293;50.930;3.464;2024-02-21T15:12:46;9.80;96.20
42683;DHT22;28293;50.930;3.464;2024-02-21T15:15:13;9.80;96.30
42683;DHT22;28293;50.930;3.464;2024-02-21T15:17:39;9.80;96.30
42683;DHT22;28293;50.930;3.464;2024-02-21T15:20:05;9.80;96.40
42683;DHT22;28293;50.930;3.464;2024-02-21T15:22:33;9.70;96.40
42683;DHT22;28293;50.930;3.464;2024-02-21T15:24:59;9.80;96.50
42683;DHT22;28293;50.930;3.464;2024-02-21T15:27:30;9.80;96.40
42683;DHT22;28293;50.930;3.464;2024-02-21T15:29:57;9.80;96.50
42683;DHT22;28293;50.930;3.464;2024-02-21T15:32:23;9.80;96.60
42683;DHT22;28293;50.930;3.464;2024-02-21T15:34:49;9.80;96.50
42683;DHT22;28293;50.930;3.464;2024-02-21T15:37:14;9.80;96.60
42683;DHT22;28293;50.930;3.464;2024-02-21T15:39:41;9.80;96.60
42683;DHT22;28293;50.930;3.464;2024-02-21T15:42:08;9.90;96.70